Time;durP1;ratioP1;P1;durP2;ratioP2;P2;SDS_P1;SDS_P2;PMS_P1;PMS_P2;Temp;Humidity;BMP_temperature;BMP_pressure;BME280_temperature;BME280_humidity;BME280_pressure;Samples;Min_cycle;Max_cycle;Signal;HPM_P1;HPM_P2
2021/11/19 00:01:32;;;;;;;25.53;12.30;;;11.40;99.90;;;;;;4999738;28;20173;-87
2021/11/19 00:03:58;;;;;;;22.10;13.80;;;11.40;99.90;;;;;;4998816;28;20419;-81
2021/11/19 00:06:24;;;;;;;17.97;11.57;;;11.40;99.90;;;;;;4995415;28;20481;-89
2021/11/19 00:08:50;;;;;;;20.00;10.77;;;11.40;99.90;;;;;;4994888;28;20421;-95
2021/11/19 00:11:22;;;;;;;19.30;11.17;;;11.40;99.90;;;;;;4994891;28;21063;-85
2021/11/19 00:13:48;;;;;;;17.27;10.13;;;11.40;99.90;;;;;;4993530;28;20438;-84
2021/11/19 00:16:16;;;;;;;18.87;11.27;;;11.40;99.90;;;;;;4995794;28;20479;-81
2021/11/19 00:18:42;;;;;;;18.43;10.33;;;11.50;99.90;;;;;;4998601;28;20496;-93
2021/11/19 00:21:08;;;;;;;18.97;10.43;;;11.50;99.90;;;;;;4998657;28;20452;-90
2021/11/19 00:23:35;;;;;;;15.20;8.67;;;11.50;99.90;;;;;;5002547;28;20419;-92
2021/11/19 00:26:01;;;;;;;16.87;9.80;;;11.50;99.90;;;;;;4999453;28;20920;-92
2021/11/19 00:28:27;;;;;;;18.67;8.90;;;11.50;99.90;;;;;;4999724;28;20430;-88
2021/11/19 00:30:52;;;;;;;15.73;8.30;;;11.50;99.90;;;;;;4998847;28;20442;-83
2021/11/19 00:33:22;;;;;;;19.73;8.27;;;11.50;99.90;;;;;;4999920;28;20777;-91
2021/11/19 00:35:47;;;;;;;15.23;8.70;;;11.60;99.90;;;;;;5001277;28;20223;-81
2021/11/19 00:38:16;;;;;;;14.53;8.67;;;11.60;99.90;;;;;;4997340;28;20432;-90
2021/11/19 00:40:47;;;;;;;21.33;9.20;;;11.60;99.90;;;;;;4997892;28;20459;-84
2021/11/19 00:43:13;;;;;;;14.00;7.47;;;11.60;99.90;;;;;;5000799;28;20431;-92
2021/11/19 00:45:39;;;;;;;14.90;9.10;;;11.60;99.90;;;;;;4998519;28;20424;-85
2021/11/19 00:48:06;;;;;;;12.50;8.00;;;11.60;99.90;;;;;;4996608;28;20268;-82
2021/11/19 00:50:37;;;;;;;15.80;7.40;;;11.60;99.90;;;;;;5003967;28;20182;-83
2021/11/19 00:53:03;;;;;;;15.50;6.80;;;11.60;99.90;;;;;;4998051;28;20466;-83
2021/11/19 00:55:31;;;;;;;10.23;6.23;;;11.70;99.90;;;;;;5000544;28;20893;-80
2021/11/19 00:57:56;;;;;;;15.63;7.60;;;11.70;99.90;;;;;;5018728;28;20175;-93
2021/11/19 01:00:39;;;;;;;16.70;7.93;;;11.70;99.90;;;;;;5021558;28;20518;-91
2021/11/19 01:03:05;;;;;;;13.23;8.17;;;11.70;99.90;;;;;;5020361;28;20172;-92
2021/11/19 01:05:31;;;;;;;13.93;6.90;;;11.70;99.90;;;;;;5019311;28;20428;-85
2021/11/19 01:07:57;;;;;;;13.87;8.27;;;11.70;99.90;;;;;;5024522;28;20418;-89
2021/11/19 01:10:29;;;;;;;15.37;7.30;;;11.70;99.90;;;;;;5003328;28;20434;-92
2021/11/19 01:12:55;;;;;;;13.47;6.67;;;11.70;99.90;;;;;;5010466;28;20223;-93
2021/11/19 01:15:39;;;;;;;10.70;7.20;;;11.70;99.90;;;;;;5020767;28;20467;-91
2021/11/19 01:18:12;;;;;;;18.97;7.33;;;11.70;99.90;;;;;;5025494;28;20451;-84
2021/11/19 01:20:52;;;;;;;12.10;8.13;;;11.70;99.90;;;;;;5026268;28;21213;-93
2021/11/19 01:23:21;;;;;;;15.17;8.53;;;11.70;99.90;;;;;;5024580;28;20411;-88
2021/11/19 01:25:54;;;;;;;15.17;8.33;;;11.70;99.90;;;;;;5006254;28;20950;-92
2021/11/19 01:28:21;;;;;;;14.43;6.40;;;11.80;99.90;;;;;;5023660;28;20399;-87
2021/11/19 01:30:51;;;;;;;11.77;6.20;;;11.80;99.90;;;;;;5028164;28;21128;-93
2021/11/19 01:33:17;;;;;;;15.23;6.77;;;11.80;99.90;;;;;;5004384;28;20426;-87
2021/11/19 01:35:44;;;;;;;13.53;6.03;;;11.80;99.90;;;;;;5012979;28;20484;-93
2021/11/19 01:38:10;;;;;;;13.10;5.50;;;11.80;99.90;;;;;;5002584;28;20209;-93
2021/11/19 01:40:40;;;;;;;10.20;5.70;;;11.80;99.90;;;;;;4986283;28;20429;-88
2021/11/19 01:43:09;;;;;;;19.03;5.90;;;11.90;99.90;;;;;;5001353;28;20170;-93
2021/11/19 01:45:40;;;;;;;14.10;6.67;;;11.90;99.90;;;;;;4997285;28;21125;-86
2021/11/19 01:48:10;;;;;;;11.60;6.27;;;11.80;99.90;;;;;;4995134;28;20427;-86
2021/11/19 01:50:48;;;;;;;13.80;6.57;;;11.80;99.90;;;;;;4997322;28;20480;-85
2021/11/19 01:53:23;;;;;;;12.30;7.57;;;11.80;99.90;;;;;;4980096;28;20424;-89
2021/11/19 01:56:00;;;;;;;8.33;5.37;;;11.80;99.90;;;;;;4995660;28;20526;-85
2021/11/19 01:58:30;;;;;;;9.00;5.83;;;11.80;99.90;;;;;;4996330;28;20761;-89
2021/11/19 02:01:08;;;;;;;15.30;6.47;;;11.70;99.90;;;;;;4996298;28;20819;-88
2021/11/19 02:03:36;;;;;;;11.47;5.27;;;11.70;99.90;;;;;;4995954;28;20800;-91
2021/11/19 02:06:15;;;;;;;9.33;6.37;;;11.70;99.90;;;;;;4996279;28;20415;-93
2021/11/19 02:08:44;;;;;;;11.03;6.00;;;11.70;99.90;;;;;;4996575;28;20441;-92
2021/11/19 02:11:27;;;;;;;11.43;5.47;;;11.70;99.90;;;;;;4996338;28;20447;-92
2021/11/19 02:14:17;;;;;;;9.33;5.33;;;11.70;99.90;;;;;;4979529;28;20417;-92
2021/11/19 02:16:54;;;;;;;11.10;5.90;;;11.70;99.90;;;;;;4997207;28;20483;-94
2021/11/19 02:19:58;;;;;;;9.20;5.83;;;11.70;99.90;;;;;;4997590;28;20455;-94
2021/11/19 02:22:31;;;;;;;10.10;5.03;;;11.80;99.90;;;;;;4997049;28;20431;-94
2021/11/19 02:25:32;;;;;;;8.10;4.70;;;11.80;99.90;;;;;;4996501;28;20469;-91
2021/11/19 02:28:02;;;;;;;9.10;4.40;;;11.70;99.90;;;;;;4964940;28;20440;-94
2021/11/19 02:31:06;;;;;;;8.00;5.23;;;11.70;99.90;;;;;;4979970;28;20785;-92
2021/11/19 02:33:32;;;;;;;15.00;4.93;;;11.70;99.90;;;;;;4950113;29;20466;-91
2021/11/19 02:36:04;;;;;;;18.90;6.23;;;11.80;99.90;;;;;;5002573;28;20484;-91
2021/11/19 02:38:53;;;;;;;9.23;4.70;;;11.80;99.90;;;;;;5012552;28;20157;-91
2021/11/19 02:41:22;;;;;;;12.70;5.47;;;11.80;99.90;;;;;;5008721;28;20412;-92
2021/11/19 02:43:59;;;;;;;8.83;4.93;;;11.80;99.90;;;;;;5012074;28;20439;-94
2021/11/19 02:46:31;;;;;;;9.00;5.13;;;11.80;99.90;;;;;;5010769;28;20512;-93
2021/11/19 02:48:57;;;;;;;9.87;4.97;;;11.80;99.90;;;;;;5010147;28;20391;-88
2021/11/19 02:51:28;;;;;;;18.97;5.43;;;11.80;99.90;;;;;;5015020;28;20427;-89
2021/11/19 02:53:54;;;;;;;11.73;4.97;;;11.80;99.90;;;;;;5003113;28;20444;-84
2021/11/19 02:56:22;;;;;;;11.60;5.57;;;11.80;99.90;;;;;;5019516;28;20519;-84
2021/11/19 02:58:51;;;;;;;14.87;6.53;;;11.80;99.90;;;;;;5010171;28;20447;-88
2021/11/19 03:01:29;;;;;;;8.37;4.70;;;11.80;99.90;;;;;;5003219;28;20447;-81
2021/11/19 03:04:06;;;;;;;8.70;5.90;;;11.80;99.90;;;;;;5002653;28;20470;-80
2021/11/19 03:06:35;;;;;;;8.90;4.13;;;11.80;99.90;;;;;;5003148;28;20424;-84
2021/11/19 03:09:01;;;;;;;14.63;5.83;;;11.80;99.90;;;;;;5005325;28;20452;-87
2021/11/19 03:11:27;;;;;;;10.03;5.30;;;11.80;99.90;;;;;;5006655;28;20480;-79
2021/11/19 03:13:52;;;;;;;12.30;5.63;;;11.80;99.90;;;;;;5008797;28;20408;-81
2021/11/19 03:16:18;;;;;;;11.20;5.20;;;11.80;99.90;;;;;;5010814;28;20763;-79
2021/11/19 03:18:44;;;;;;;9.73;5.07;;;11.80;99.90;;;;;;5005357;28;20193;-82
2021/11/19 03:21:15;;;;;;;12.37;6.43;;;11.80;99.90;;;;;;5003023;28;20187;-81
2021/11/19 03:23:42;;;;;;;10.90;5.53;;;11.90;99.90;;;;;;4999715;28;20821;-79
2021/11/19 03:26:09;;;;;;;9.13;4.93;;;11.90;99.90;;;;;;5002894;28;20432;-84
2021/11/19 03:28:36;;;;;;;9.13;4.00;;;11.90;99.90;;;;;;5000094;28;20424;-85
2021/11/19 03:31:08;;;;;;;10.33;5.40;;;11.90;99.90;;;;;;5012211;28;20516;-90
2021/11/19 03:33:37;;;;;;;15.00;5.30;;;11.90;99.90;;;;;;5014711;28;20463;-81
2021/11/19 03:36:04;;;;;;;7.07;4.00;;;11.90;99.90;;;;;;5012777;28;20507;-83
2021/11/19 03:38:32;;;;;;;16.07;4.97;;;11.90;99.90;;;;;;5015301;28;20431;-81
2021/11/19 03:40:58;;;;;;;16.70;4.77;;;11.90;99.90;;;;;;5011872;28;20488;-81
2021/11/19 03:43:29;;;;;;;12.03;5.10;;;11.90;99.90;;;;;;5011907;28;20769;-85
2021/11/19 03:45:58;;;;;;;10.73;4.93;;;11.90;99.90;;;;;;5015672;28;20430;-87
2021/11/19 03:48:25;;;;;;;10.33;5.17;;;12.00;99.90;;;;;;5007807;28;20471;-84
2021/11/19 03:50:55;;;;;;;8.37;3.33;;;11.90;99.90;;;;;;5012724;28;20420;-80
2021/11/19 03:53:23;;;;;;;7.73;3.77;;;11.90;99.90;;;;;;5013040;28;20413;-80
2021/11/19 03:55:50;;;;;;;10.07;4.10;;;11.90;99.90;;;;;;5021322;28;20498;-81
2021/11/19 03:58:20;;;;;;;9.03;3.30;;;11.90;99.90;;;;;;5035155;28;20500;-80
2021/11/19 04:01:06;;;;;;;7.57;4.30;;;12.00;99.90;;;;;;5035189;28;20571;-87
2021/11/19 04:03:31;;;;;;;13.60;4.90;;;12.00;99.90;;;;;;5035388;28;20509;-84
2021/11/19 04:05:57;;;;;;;7.37;3.40;;;12.00;99.90;;;;;;5035459;28;20431;-93
2021/11/19 04:08:23;;;;;;;7.77;4.33;;;11.90;99.90;;;;;;5034718;28;20200;-94
2021/11/19 04:10:49;;;;;;;10.73;3.63;;;12.00;99.90;;;;;;5031669;28;20184;-87
2021/11/19 04:13:15;;;;;;;10.00;4.00;;;12.00;99.90;;;;;;5032581;28;20425;-96
2021/11/19 04:15:59;;;;;;;13.80;3.73;;;12.00;99.90;;;;;;5030629;28;20454;-94
2021/11/19 04:18:26;;;;;;;12.63;4.43;;;12.00;99.90;;;;;;5032160;28;20163;-93
2021/11/19 04:20:52;;;;;;;14.10;6.10;;;12.00;99.90;;;;;;5032821;28;20435;-93
2021/11/19 04:23:18;;;;;;;9.50;5.10;;;12.00;99.90;;;;;;5013784;28;20483;-93
2021/11/19 04:25:45;;;;;;;9.90;3.80;;;12.00;99.90;;;;;;5037243;28;20413;-90
2021/11/19 04:28:10;;;;;;;10.67;4.00;;;12.00;99.90;;;;;;5038460;28;20217;-89
2021/11/19 04:30:40;;;;;;;10.60;5.30;;;12.00;99.90;;;;;;5038269;28;20424;-91
2021/11/19 04:33:06;;;;;;;11.57;4.60;;;12.00;99.90;;;;;;5037006;28;20169;-93
2021/11/19 04:35:33;;;;;;;11.47;5.13;;;12.00;99.90;;;;;;5032955;28;20490;-92
2021/11/19 04:38:00;;;;;;;8.63;3.60;;;12.00;99.90;;;;;;5037006;28;20422;-91
2021/11/19 04:40:26;;;;;;;7.23;3.23;;;12.00;99.90;;;;;;5037596;28;20408;-93
2021/11/19 04:42:51;;;;;;;11.73;4.87;;;12.00;99.90;;;;;;5023347;28;20410;-95
2021/11/19 04:45:20;;;;;;;9.90;3.70;;;12.00;99.90;;;;;;5021118;28;20774;-94
2021/11/19 04:47:48;;;;;;;7.00;3.20;;;12.10;99.90;;;;;;5020736;28;20172;-96
2021/11/19 04:50:14;;;;;;;9.50;3.53;;;12.00;99.90;;;;;;5020900;28;20412;-94
2021/11/19 04:52:40;;;;;;;12.70;4.17;;;12.00;99.90;;;;;;5019902;28;20478;-95
2021/11/19 04:55:07;;;;;;;10.63;4.23;;;12.00;99.90;;;;;;5021128;28;20460;-90
2021/11/19 04:57:33;;;;;;;9.50;3.60;;;12.00;99.90;;;;;;5020842;28;20431;-92
2021/11/19 04:59:59;;;;;;;7.03;3.73;;;12.10;99.90;;;;;;5021325;28;20411;-91
2021/11/19 05:02:27;;;;;;;6.60;4.93;;;12.10;99.90;;;;;;5024935;28;20455;-89
2021/11/19 05:04:53;;;;;;;7.80;4.17;;;12.10;99.90;;;;;;5017517;28;20427;-94
2021/11/19 05:07:19;;;;;;;9.00;3.13;;;12.10;99.90;;;;;;5020199;28;20411;-88
2021/11/19 05:09:44;;;;;;;7.03;3.50;;;12.00;99.90;;;;;;5020836;28;20479;-86
2021/11/19 05:12:27;;;;;;;14.00;5.90;;;12.00;99.90;;;;;;5024426;28;20223;-95
2021/11/19 05:14:56;;;;;;;9.40;4.73;;;12.00;99.90;;;;;;5025176;28;20232;-94
2021/11/19 05:17:23;;;;;;;8.73;5.23;;;12.00;99.90;;;;;;5026151;28;20425;-84
2021/11/19 05:19:50;;;;;;;13.30;4.67;;;12.00;99.90;;;;;;5023257;28;20503;-88
2021/11/19 05:22:16;;;;;;;14.43;4.20;;;12.00;99.90;;;;;;5025193;28;20444;-87
2021/11/19 05:24:43;;;;;;;11.33;5.43;;;12.00;99.90;;;;;;5025248;28;20415;-92
2021/11/19 05:27:08;;;;;;;14.03;5.37;;;11.90;99.90;;;;;;5021412;28;20435;-96
2021/11/19 05:29:35;;;;;;;9.83;4.00;;;11.90;99.90;;;;;;5023899;28;20408;-96
2021/11/19 05:32:01;;;;;;;9.93;5.07;;;11.90;99.90;;;;;;5024129;28;20165;-87
2021/11/19 05:34:27;;;;;;;12.27;5.23;;;11.90;99.90;;;;;;5024891;28;20422;-93
2021/11/19 05:36:53;;;;;;;8.83;5.57;;;11.90;99.90;;;;;;5010409;28;20581;-92
2021/11/19 05:39:18;;;;;;;12.60;5.27;;;11.90;99.90;;;;;;5002978;28;20423;-96
2021/11/19 05:41:45;;;;;;;11.40;5.87;;;11.90;99.90;;;;;;5018253;28;20177;-91
2021/11/19 05:44:11;;;;;;;8.80;5.50;;;11.90;99.90;;;;;;5005557;28;20227;-93
2021/11/19 05:46:41;;;;;;;19.23;7.00;;;11.90;99.90;;;;;;4985185;28;20776;-94
2021/11/19 05:49:21;;;;;;;7.83;5.00;;;11.90;99.90;;;;;;5003992;28;20507;-93
2021/11/19 05:51:49;;;;;;;8.33;5.00;;;11.90;99.90;;;;;;5003055;28;20444;-93
2021/11/19 05:54:17;;;;;;;9.90;5.00;;;11.90;99.90;;;;;;5001523;28;20417;-83
2021/11/19 05:56:43;;;;;;;7.10;5.03;;;11.90;99.90;;;;;;5014884;28;20474;-91
2021/11/19 05:59:10;;;;;;;14.53;6.00;;;11.90;99.90;;;;;;5019401;28;20507;-94
2021/11/19 06:01:35;;;;;;;9.30;5.40;;;11.90;99.90;;;;;;5021918;28;20812;-93
2021/11/19 06:04:01;;;;;;;14.03;7.97;;;11.90;99.90;;;;;;5019686;28;20448;-83
2021/11/19 06:06:29;;;;;;;8.70;4.60;;;11.90;99.90;;;;;;5021434;28;20198;-87
2021/11/19 06:08:56;;;;;;;14.63;5.27;;;11.90;99.90;;;;;;5022840;28;20414;-94
2021/11/19 06:11:29;;;;;;;11.13;5.20;;;11.90;99.90;;;;;;5020322;28;20422;-80
2021/11/19 06:14:00;;;;;;;14.63;4.70;;;11.90;99.90;;;;;;5019421;28;20433;-93
2021/11/19 06:16:30;;;;;;;8.77;4.67;;;11.90;99.90;;;;;;5019064;28;20974;-92
2021/11/19 06:19:01;;;;;;;10.43;4.43;;;11.90;99.90;;;;;;5022028;28;20399;-92
2021/11/19 06:21:33;;;;;;;14.23;5.20;;;11.90;99.90;;;;;;5019752;28;20456;-92
2021/11/19 06:24:04;;;;;;;9.80;5.20;;;11.90;99.90;;;;;;5020360;28;20418;-90
2021/11/19 06:26:31;;;;;;;11.50;5.87;;;11.90;99.90;;;;;;5016862;28;20408;-90
2021/11/19 06:29:04;;;;;;;10.40;5.13;;;11.90;99.90;;;;;;5017864;28;20423;-91
2021/11/19 06:31:32;;;;;;;7.30;4.77;;;11.90;99.90;;;;;;5000124;28;20419;-90
2021/11/19 06:33:57;;;;;;;8.87;4.77;;;11.90;99.90;;;;;;5015992;28;20935;-81
2021/11/19 06:36:23;;;;;;;8.10;5.20;;;11.90;99.90;;;;;;5004823;28;20479;-89
2021/11/19 06:38:50;;;;;;;9.83;5.33;;;11.90;99.90;;;;;;4997496;28;20177;-90
2021/11/19 06:41:17;;;;;;;6.07;4.40;;;11.90;99.90;;;;;;4998908;28;20184;-92
2021/11/19 06:43:43;;;;;;;11.50;5.30;;;11.90;99.90;;;;;;4998307;28;20419;-91
2021/11/19 06:46:11;;;;;;;7.07;4.30;;;11.90;99.90;;;;;;4998684;28;20421;-92
2021/11/19 06:48:36;;;;;;;8.57;5.30;;;11.90;99.90;;;;;;4997324;28;20412;-88
2021/11/19 06:51:03;;;;;;;9.77;4.97;;;12.00;99.90;;;;;;4998543;28;20824;-92
2021/11/19 06:53:31;;;;;;;9.80;4.90;;;11.90;99.90;;;;;;4979679;28;20272;-89
2021/11/19 06:55:56;;;;;;;9.70;5.27;;;12.00;99.90;;;;;;4996988;28;20938;-81
2021/11/19 06:58:23;;;;;;;9.00;5.27;;;12.00;99.90;;;;;;4997204;28;20514;-91
2021/11/19 07:00:49;;;;;;;9.00;4.60;;;12.00;99.90;;;;;;4997707;28;20176;-95
2021/11/19 07:03:16;;;;;;;7.60;4.70;;;11.90;99.90;;;;;;4996651;28;21093;-92
2021/11/19 07:05:41;;;;;;;9.93;5.17;;;12.00;99.90;;;;;;4995916;28;20419;-91
2021/11/19 07:08:09;;;;;;;9.17;6.03;;;12.00;99.90;;;;;;4995800;28;20429;-94
2021/11/19 07:10:37;;;;;;;14.63;5.27;;;12.00;99.90;;;;;;4995517;28;20546;-84
2021/11/19 07:13:03;;;;;;;12.93;4.20;;;12.00;99.90;;;;;;4996510;28;20425;-92
2021/11/19 07:15:29;;;;;;;11.03;4.10;;;12.00;99.90;;;;;;4996107;28;20485;-86
2021/11/19 07:17:55;;;;;;;16.40;5.63;;;12.00;99.90;;;;;;4996724;28;20569;-90
2021/11/19 07:20:23;;;;;;;8.40;5.30;;;12.10;99.90;;;;;;4997759;28;20491;-80
2021/11/19 07:22:48;;;;;;;10.13;4.47;;;12.10;99.90;;;;;;5000079;28;20460;-81
2021/11/19 07:25:17;;;;;;;8.10;4.33;;;12.10;99.90;;;;;;5000759;28;20426;-95
2021/11/19 07:27:45;;;;;;;12.90;4.17;;;12.10;99.90;;;;;;4997069;28;20177;-92
2021/11/19 07:30:15;;;;;;;6.33;3.17;;;12.10;99.90;;;;;;4996636;28;20419;-91
2021/11/19 07:32:41;;;;;;;9.43;3.93;;;12.20;99.90;;;;;;4995463;28;20408;-92
2021/11/19 07:35:08;;;;;;;14.83;3.63;;;12.20;99.90;;;;;;4998770;28;20436;-83
2021/11/19 07:37:34;;;;;;;7.90;2.90;;;12.20;99.90;;;;;;5030728;28;20239;-80
2021/11/19 07:40:00;;;;;;;7.00;3.20;;;12.10;99.90;;;;;;5014957;28;20483;-89
2021/11/19 07:42:27;;;;;;;6.40;3.27;;;12.20;99.90;;;;;;5012143;28;20440;-81
2021/11/19 07:44:52;;;;;;;6.73;3.30;;;12.20;99.90;;;;;;5008434;28;20906;-79
2021/11/19 07:47:18;;;;;;;7.43;3.10;;;12.20;99.90;;;;;;5002904;28;20415;-95
2021/11/19 07:49:43;;;;;;;8.37;3.10;;;12.20;99.90;;;;;;4998823;28;20204;-89
2021/11/19 07:52:09;;;;;;;11.33;3.70;;;12.20;99.90;;;;;;4998474;28;20168;-88
2021/11/19 07:54:35;;;;;;;7.60;2.97;;;12.20;99.90;;;;;;5002217;28;20193;-88
2021/11/19 07:57:04;;;;;;;11.80;3.17;;;12.20;99.90;;;;;;4999914;28;20500;-94
2021/11/19 07:59:31;;;;;;;12.37;2.83;;;12.20;99.90;;;;;;5001753;28;20174;-94
2021/11/19 08:01:59;;;;;;;7.27;2.73;;;12.30;99.90;;;;;;5000623;28;20428;-85
2021/11/19 08:04:28;;;;;;;15.70;3.20;;;12.30;99.90;;;;;;4997614;28;20414;-93
2021/11/19 08:06:54;;;;;;;8.93;2.80;;;12.30;99.90;;;;;;4998622;28;20412;-85
2021/11/19 08:09:21;;;;;;;7.27;2.97;;;12.30;99.90;;;;;;5006128;28;20416;-95
2021/11/19 08:11:47;;;;;;;5.67;2.90;;;12.30;99.90;;;;;;5008714;28;20429;-91
2021/11/19 08:14:13;;;;;;;8.83;3.20;;;12.30;99.90;;;;;;5007626;28;20412;-91
2021/11/19 08:16:57;;;;;;;5.97;2.33;;;12.30;99.90;;;;;;5023866;28;20209;-83
2021/11/19 08:19:26;;;;;;;5.13;3.07;;;12.30;99.90;;;;;;5006180;28;20441;-96
2021/11/19 08:21:54;;;;;;;7.90;3.00;;;12.20;99.90;;;;;;5005302;28;20987;-95
2021/11/19 08:24:20;;;;;;;9.70;3.43;;;12.30;99.90;;;;;;5003253;28;20523;-83
2021/11/19 08:26:51;;;;;;;8.60;2.97;;;12.30;99.90;;;;;;5006964;28;20483;-86
2021/11/19 08:29:23;;;;;;;13.70;4.43;;;12.30;99.90;;;;;;5009257;28;20827;-96
2021/11/19 08:31:50;;;;;;;11.93;7.03;;;12.20;99.90;;;;;;5006186;28;20888;-94
2021/11/19 08:34:19;;;;;;;8.50;2.90;;;12.30;99.90;;;;;;5007643;28;20766;-95
2021/11/19 08:36:45;;;;;;;10.63;3.90;;;12.30;99.90;;;;;;5006536;28;20477;-85
2021/11/19 08:39:13;;;;;;;11.67;4.47;;;12.30;99.90;;;;;;5002963;28;20423;-95
2021/11/19 08:41:39;;;;;;;9.03;3.93;;;12.40;99.90;;;;;;5002509;28;20209;-86
2021/11/19 08:44:06;;;;;;;8.33;4.80;;;12.40;99.90;;;;;;4999616;28;20403;-95
2021/11/19 08:46:36;;;;;;;5.77;2.93;;;12.30;99.90;;;;;;5002259;28;20474;-94
2021/11/19 08:49:06;;;;;;;6.83;4.37;;;12.30;99.90;;;;;;5001343;28;20475;-95
2021/11/19 08:51:33;;;;;;;7.80;3.87;;;12.40;99.90;;;;;;5000395;28;20905;-94
2021/11/19 08:54:02;;;;;;;9.83;3.87;;;12.40;99.90;;;;;;5004113;28;20892;-95
2021/11/19 08:56:30;;;;;;;7.43;3.80;;;12.40;99.90;;;;;;5007354;28;20492;-88
2021/11/19 08:58:56;;;;;;;7.33;3.10;;;12.40;99.90;;;;;;5004772;28;20930;-93
2021/11/19 09:01:25;;;;;;;7.50;4.40;;;12.40;99.90;;;;;;5009886;28;20451;-96
2021/11/19 09:03:51;;;;;;;8.20;3.47;;;12.40;99.90;;;;;;5007889;28;20420;-84
2021/11/19 09:06:19;;;;;;;12.60;4.20;;;12.40;99.90;;;;;;5005371;28;20409;-89
2021/11/19 09:08:45;;;;;;;6.80;3.90;;;12.40;99.90;;;;;;5003067;28;20425;-92
2021/11/19 09:11:14;;;;;;;6.80;3.83;;;12.40;99.90;;;;;;5008900;28;21012;-93
2021/11/19 09:13:41;;;;;;;12.00;5.13;;;12.40;99.90;;;;;;4982869;28;20498;-94
2021/11/19 09:16:09;;;;;;;9.63;4.30;;;12.30;99.90;;;;;;4996573;28;20559;-94
2021/11/19 09:18:53;;;;;;;5.00;3.30;;;12.30;99.90;;;;;;4980812;28;20461;-93
2021/11/19 09:21:26;;;;;;;9.60;4.20;;;12.30;99.90;;;;;;5003247;28;20427;-92
2021/11/19 09:24:02;;;;;;;8.20;3.30;;;12.30;99.90;;;;;;4987580;28;20425;-91
2021/11/19 09:26:44;;;;;;;5.50;2.83;;;12.20;99.90;;;;;;5011060;28;20448;-92
2021/11/19 09:29:15;;;;;;;6.87;3.80;;;12.30;99.90;;;;;;5001655;28;20823;-94
2021/11/19 09:31:41;;;;;;;5.90;3.07;;;12.30;99.90;;;;;;4997854;28;20475;-94
2021/11/19 09:34:08;;;;;;;7.37;4.50;;;12.30;99.90;;;;;;4997443;28;20415;-93
2021/11/19 09:36:38;;;;;;;6.53;3.20;;;12.30;99.90;;;;;;4997110;28;20480;-94
2021/11/19 09:39:09;;;;;;;7.80;2.67;;;12.40;99.90;;;;;;4981367;28;20911;-93
2021/11/19 09:41:46;;;;;;;6.00;3.10;;;12.40;99.90;;;;;;4996888;28;20416;-95
2021/11/19 09:44:46;;;;;;;8.23;3.77;;;12.40;99.90;;;;;;5004194;28;20412;-93
2021/11/19 09:47:49;;;;;;;4.13;2.20;;;12.40;99.90;;;;;;5005813;28;20441;-84
2021/11/19 09:50:53;;;;;;;7.63;2.80;;;12.40;99.90;;;;;;5003619;28;20778;-83
2021/11/19 09:53:45;;;;;;;6.83;3.87;;;12.50;99.90;;;;;;4975017;28;20502;-89
2021/11/19 09:56:29;;;;;;;7.10;3.83;;;12.50;99.90;;;;;;5010531;28;20475;-84
2021/11/19 09:59:17;;;;;;;4.57;3.37;;;12.60;99.90;;;;;;5024869;28;20407;-91
2021/11/19 10:01:58;;;;;;;8.80;3.27;;;12.60;99.90;;;;;;5023179;28;20421;-88
2021/11/19 10:04:26;;;;;;;6.90;3.90;;;12.60;99.90;;;;;;5023535;28;20406;-90
2021/11/19 10:07:13;;;;;;;8.00;4.00;;;12.70;99.90;;;;;;5025057;28;20417;-96
2021/11/19 10:09:52;;;;;;;7.73;3.07;;;12.60;99.90;;;;;;4979484;28;20427;-95
2021/11/19 10:12:47;;;;;;;8.63;4.30;;;12.60;99.90;;;;;;4980685;28;20414;-93
2021/11/19 10:15:57;;;;;;;6.50;3.73;;;12.70;99.90;;;;;;4972512;28;20451;-94
2021/11/19 10:18:51;;;;;;;8.30;3.80;;;12.70;99.90;;;;;;4977274;28;20435;-91
2021/11/19 10:21:30;;;;;;;7.73;2.63;;;12.70;99.90;;;;;;4977994;28;20415;-94
2021/11/19 10:24:34;;;;;;;8.20;3.83;;;12.70;99.90;;;;;;4977738;28;20414;-88
2021/11/19 10:26:59;;;;;;;10.73;3.83;;;12.60;99.90;;;;;;4978562;28;20481;-91
2021/11/19 10:29:35;;;;;;;8.30;2.77;;;12.70;99.90;;;;;;4978357;28;20415;-94
2021/11/19 10:32:02;;;;;;;7.17;3.40;;;12.70;99.90;;;;;;4977546;28;20422;-94
2021/11/19 10:34:43;;;;;;;6.73;3.37;;;12.60;99.90;;;;;;4977082;28;20425;-93
2021/11/19 10:37:36;;;;;;;6.80;3.40;;;12.60;99.90;;;;;;4997239;28;20510;-91
2021/11/19 10:40:38;;;;;;;5.43;2.73;;;12.70;99.90;;;;;;4998766;28;20419;-93
2021/11/19 10:43:25;;;;;;;5.87;2.77;;;12.70;99.90;;;;;;5007230;28;20474;-88
2021/11/19 10:46:15;;;;;;;5.20;2.77;;;12.70;99.90;;;;;;5002863;28;20428;-94
2021/11/19 10:49:06;;;;;;;5.60;3.17;;;12.80;99.90;;;;;;5012797;28;20844;-93
2021/11/19 10:52:29;;;;;;;9.10;2.80;;;12.90;99.90;;;;;;5018417;28;20451;-92
2021/11/19 10:55:13;;;;;;;8.30;2.77;;;12.90;99.90;;;;;;4981559;28;20454;-89
2021/11/19 10:57:41;;;;;;;5.70;3.33;;;12.90;99.90;;;;;;5019479;28;20784;-96
2021/11/19 11:00:22;;;;;;;4.87;2.50;;;12.90;99.90;;;;;;5027328;28;20515;-94
2021/11/19 11:02:54;;;;;;;4.53;3.50;;;13.00;99.90;;;;;;4991508;28;20476;-84
2021/11/19 11:05:41;;;;;;;6.13;2.70;;;13.00;99.90;;;;;;4986609;28;20486;-85
2021/11/19 11:08:18;;;;;;;8.10;3.03;;;12.90;99.90;;;;;;4989129;28;20467;-83
2021/11/19 11:11:00;;;;;;;4.27;3.23;;;12.90;99.90;;;;;;4993000;28;20437;-91
2021/11/19 11:13:31;;;;;;;7.07;2.93;;;12.90;99.90;;;;;;4994499;28;20428;-92
2021/11/19 11:16:24;;;;;;;7.70;3.47;;;12.80;99.90;;;;;;4994122;28;20454;-90
2021/11/19 11:19:24;;;;;;;7.40;3.90;;;12.80;99.90;;;;;;4987774;28;20837;-93
2021/11/19 11:21:50;;;;;;;11.53;3.23;;;12.80;99.90;;;;;;4993935;28;20412;-95
2021/11/19 11:24:46;;;;;;;9.23;4.97;;;12.80;99.90;;;;;;4994583;28;20468;-83
2021/11/19 11:27:11;;;;;;;9.37;3.00;;;12.80;99.90;;;;;;4994584;28;20186;-87
2021/11/19 11:29:57;;;;;;;7.07;3.40;;;12.80;99.90;;;;;;4993476;28;20417;-83
2021/11/19 11:32:51;;;;;;;8.50;4.40;;;12.80;99.90;;;;;;4994904;28;20170;-93
2021/11/19 11:35:34;;;;;;;8.30;3.50;;;12.80;99.90;;;;;;4993548;28;20452;-86
2021/11/19 11:38:06;;;;;;;9.73;4.03;;;12.90;99.90;;;;;;5002181;28;20442;-84
2021/11/19 11:40:55;;;;;;;7.77;3.77;;;12.90;99.90;;;;;;5013727;28;20404;-91
2021/11/19 11:43:32;;;;;;;9.97;4.20;;;13.00;99.90;;;;;;5014964;28;20428;-92
2021/11/19 11:46:16;;;;;;;7.90;3.60;;;13.00;99.90;;;;;;4992538;28;20911;-82
2021/11/19 11:48:53;;;;;;;11.40;4.20;;;13.00;99.90;;;;;;4994238;28;20491;-93
2021/11/19 11:51:21;;;;;;;10.13;3.53;;;13.00;99.90;;;;;;4993202;28;20973;-86
2021/11/19 11:54:19;;;;;;;11.47;4.00;;;13.00;99.90;;;;;;4993399;28;20422;-86
2021/11/19 11:56:48;;;;;;;12.00;4.53;;;12.90;99.90;;;;;;5004036;28;20487;-88
2021/11/19 11:59:31;;;;;;;6.00;2.17;;;12.80;99.90;;;;;;5013227;28;20412;-86
2021/11/19 12:02:01;;;;;;;7.67;4.53;;;12.80;99.90;;;;;;5013283;28;20418;-86
2021/11/19 12:04:41;;;;;;;9.97;4.30;;;12.80;99.90;;;;;;4995987;28;20417;-88
2021/11/19 12:07:25;;;;;;;5.60;3.23;;;12.80;99.90;;;;;;4991517;28;20942;-85
2021/11/19 12:10:23;;;;;;;9.37;4.20;;;12.80;99.90;;;;;;4993288;28;20416;-87
2021/11/19 12:13:01;;;;;;;8.10;4.50;;;12.80;99.90;;;;;;4993436;28;20425;-87
2021/11/19 12:15:54;;;;;;;9.30;4.00;;;12.90;99.90;;;;;;4992791;28;20473;-85
2021/11/19 12:18:42;;;;;;;7.80;4.00;;;12.80;99.90;;;;;;4993617;28;20898;-91
2021/11/19 12:21:10;;;;;;;10.30;3.47;;;12.80;99.90;;;;;;4996980;28;20778;-90
2021/11/19 12:23:45;;;;;;;10.03;3.80;;;12.80;99.90;;;;;;4996940;28;20414;-92
2021/11/19 12:26:42;;;;;;;9.90;3.60;;;12.80;99.90;;;;;;4996972;28;20414;-87
2021/11/19 12:29:47;;;;;;;6.33;2.60;;;12.90;99.90;;;;;;4992798;28;20929;-91
2021/11/19 12:32:36;;;;;;;8.07;2.73;;;13.00;99.90;;;;;;4973742;28;20426;-91
2021/11/19 12:35:18;;;;;;;5.57;2.57;;;13.00;99.90;;;;;;4997119;28;20421;-94
2021/11/19 12:38:10;;;;;;;8.13;2.47;;;13.00;99.90;;;;;;4999357;28;20458;-89
2021/11/19 12:40:50;;;;;;;7.10;2.20;;;12.80;99.90;;;;;;5015882;28;20432;-90
2021/11/19 12:43:40;;;;;;;10.37;2.77;;;12.80;99.90;;;;;;5007308;28;20453;-86
2021/11/19 12:46:24;;;;;;;10.50;2.87;;;12.70;99.90;;;;;;4995312;28;20429;-89
2021/11/19 12:49:01;;;;;;;7.10;3.47;;;12.70;99.90;;;;;;4996515;28;20417;-87
2021/11/19 12:51:42;;;;;;;10.37;2.70;;;12.60;99.90;;;;;;5007527;28;20416;-89
2021/11/19 12:54:33;;;;;;;6.00;2.97;;;12.60;99.90;;;;;;5015737;28;20411;-89
2021/11/19 12:57:01;;;;;;;10.43;2.43;;;12.70;99.90;;;;;;4997736;28;20577;-86
2021/11/19 12:59:43;;;;;;;7.20;2.90;;;12.70;99.90;;;;;;4997868;28;20418;-88
2021/11/19 13:02:24;;;;;;;8.70;2.60;;;12.60;99.90;;;;;;4998148;28;20959;-84
2021/11/19 13:05:09;;;;;;;8.30;3.13;;;12.60;99.90;;;;;;4999477;28;20486;-92
2021/11/19 13:07:44;;;;;;;4.50;2.27;;;12.70;99.90;;;;;;4988009;28;20417;-88
2021/11/19 13:10:16;;;;;;;7.83;2.70;;;12.60;99.90;;;;;;4987943;28;20436;-89
2021/11/19 13:13:00;;;;;;;7.80;3.93;;;12.60;99.90;;;;;;4988515;28;20421;-91